sensor_id;sensor_type;location;lat;lon;timestamp;pressure;altitude;pressure_sealevel;temperature;humidity
35307;BME280;21420;52.196;21.416;2024-01-15T00:00:24;98098.77;;;0.68;76.72
35307;BME280;21420;52.196;21.416;2024-01-15T00:02:51;98091.10;;;0.67;76.66
35307;BME280;21420;52.196;21.416;2024-01-15T00:05:18;98089.34;;;0.65;76.73
35307;BME280;21420;52.196;21.416;2024-01-15T00:07:44;98086.90;;;0.64;76.79
35307;BME280;21420;52.196;21.416;2024-01-15T00:10:11;98086.05;;;0.64;76.84
35307;BME280;21420;52.196;21.416;2024-01-15T00:12:38;98081.36;;;0.64;76.84
35307;BME280;21420;52.196;21.416;2024-01-15T00:15:05;98078.91;;;0.64;76.81
35307;BME280;21420;52.196;21.416;2024-01-15T00:17:32;98075.02;;;0.65;76.74
35307;BME280;21420;52.196;21.416;2024-01-15T00:19:59;98071.78;;;0.65;76.88
35307;BME280;21420;52.196;21.416;2024-01-15T00:22:26;98064.77;;;0.65;76.98
35307;BME280;21420;52.196;21.416;2024-01-15T00:24:54;98066.41;;;0.66;76.97
35307;BME280;21420;52.196;21.416;2024-01-15T00:27:20;98061.88;;;0.66;77.02
35307;BME280;21420;52.196;21.416;2024-01-15T00:29:47;98053.20;;;0.66;76.96
35307;BME280;21420;52.196;21.416;2024-01-15T00:32:14;98053.23;;;0.67;76.84
35307;BME280;21420;52.196;21.416;2024-01-15T00:34:41;98049.36;;;0.67;76.88
35307;BME280;21420;52.196;21.416;2024-01-15T00:37:08;98047.06;;;0.65;76.91
35307;BME280;21420;52.196;21.416;2024-01-15T00:39:35;98037.30;;;0.63;76.92
35307;BME280;21420;52.196;21.416;2024-01-15T00:42:02;98031.89;;;0.64;76.84
35307;BME280;21420;52.196;21.416;2024-01-15T00:44:29;98033.38;;;0.65;76.92
35307;BME280;21420;52.196;21.416;2024-01-15T00:46:56;98029.16;;;0.64;76.88
35307;BME280;21420;52.196;21.416;2024-01-15T00:49:23;98018.05;;;0.62;76.90
35307;BME280;21420;52.196;21.416;2024-01-15T00:51:49;98011.94;;;0.61;76.90
35307;BME280;21420;52.196;21.416;2024-01-15T00:54:16;98008.81;;;0.60;76.96
35307;BME280;21420;52.196;21.416;2024-01-15T00:56:44;98010.71;;;0.60;76.96
35307;BME280;21420;52.196;21.416;2024-01-15T00:59:10;98005.59;;;0.57;76.85
35307;BME280;21420;52.196;21.416;2024-01-15T01:01:41;98004.29;;;0.55;76.93
35307;BME280;21420;52.196;21.416;2024-01-15T01:04:12;97999.26;;;0.54;77.03
35307;BME280;21420;52.196;21.416;2024-01-15T01:06:39;97994.44;;;0.54;77.01
35307;BME280;21420;52.196;21.416;2024-01-15T01:09:06;97986.80;;;0.54;76.94
35307;BME280;21420;52.196;21.416;2024-01-15T01:11:33;97985.64;;;0.52;76.88
35307;BME280;21420;52.196;21.416;2024-01-15T01:14:01;97985.64;;;0.52;76.96
35307;BME280;21420;52.196;21.416;2024-01-15T01:16:28;97978.23;;;0.51;77.03
35307;BME280;21420;52.196;21.416;2024-01-15T01:18:55;97977.49;;;0.52;77.00
35307;BME280;21420;52.196;21.416;2024-01-15T01:21:21;97970.98;;;0.53;77.03
35307;BME280;21420;52.196;21.416;2024-01-15T01:23:48;97969.02;;;0.56;77.05
35307;BME280;21420;52.196;21.416;2024-01-15T01:26:16;97966.87;;;0.58;77.04
35307;BME280;21420;52.196;21.416;2024-01-15T01:28:43;97969.57;;;0.58;77.17
35307;BME280;21420;52.196;21.416;2024-01-15T01:31:10;97964.66;;;0.57;76.90
35307;BME280;21420;52.196;21.416;2024-01-15T01:33:38;97961.34;;;0.56;77.01
35307;BME280;21420;52.196;21.416;2024-01-15T01:36:09;97953.36;;;0.55;76.97
35307;BME280;21420;52.196;21.416;2024-01-15T01:38:37;97957.77;;;0.56;77.04
35307;BME280;21420;52.196;21.416;2024-01-15T01:41:04;97950.48;;;0.54;76.93
35307;BME280;21420;52.196;21.416;2024-01-15T01:43:31;97952.45;;;0.49;76.89
35307;BME280;21420;52.196;21.416;2024-01-15T01:45:58;97950.77;;;0.46;76.88
35307;BME280;21420;52.196;21.416;2024-01-15T01:48:27;97946.38;;;0.43;76.89
35307;BME280;21420;52.196;21.416;2024-01-15T01:50:57;97942.45;;;0.43;76.96
35307;BME280;21420;52.196;21.416;2024-01-15T01:53:24;97942.10;;;0.44;76.97
35307;BME280;21420;52.196;21.416;2024-01-15T01:55:53;97944.28;;;0.40;76.93
35307;BME280;21420;52.196;21.416;2024-01-15T01:58:20;97929.35;;;0.38;76.96
35307;BME280;21420;52.196;21.416;2024-01-15T02:00:47;97934.01;;;0.37;76.99
35307;BME280;21420;52.196;21.416;2024-01-15T02:03:16;97932.48;;;0.37;77.06
35307;BME280;21420;52.196;21.416;2024-01-15T02:05:43;97927.33;;;0.37;76.97
35307;BME280;21420;52.196;21.416;2024-01-15T02:08:11;97930.27;;;0.36;77.02
35307;BME280;21420;52.196;21.416;2024-01-15T02:10:38;97933.92;;;0.37;77.04
35307;BME280;21420;52.196;21.416;2024-01-15T02:13:05;97929.59;;;0.36;77.00
35307;BME280;21420;52.196;21.416;2024-01-15T02:15:32;97925.59;;;0.36;77.04
35307;BME280;21420;52.196;21.416;2024-01-15T02:18:08;97917.80;;;0.36;77.07
35307;BME280;21420;52.196;21.416;2024-01-15T02:20:35;97912.64;;;0.35;77.05
35307;BME280;21420;52.196;21.416;2024-01-15T02:23:13;97907.38;;;0.37;77.12
35307;BME280;21420;52.196;21.416;2024-01-15T02:25:45;97907.08;;;0.37;77.24
35307;BME280;21420;52.196;21.416;2024-01-15T02:28:14;97908.86;;;0.37;77.17
35307;BME280;21420;52.196;21.416;2024-01-15T02:30:42;97903.58;;;0.38;77.22
35307;BME280;21420;52.196;21.416;2024-01-15T02:33:11;97903.16;;;0.37;77.10
35307;BME280;21420;52.196;21.416;2024-01-15T02:35:39;97900.09;;;0.37;77.16
35307;BME280;21420;52.196;21.416;2024-01-15T02:38:06;97898.34;;;0.38;77.23
35307;BME280;21420;52.196;21.416;2024-01-15T02:40:34;97898.70;;;0.39;77.06
35307;BME280;21420;52.196;21.416;2024-01-15T02:43:02;97891.54;;;0.41;77.10
35307;BME280;21420;52.196;21.416;2024-01-15T02:45:29;97892.04;;;0.42;77.13
35307;BME280;21420;52.196;21.416;2024-01-15T02:47:55;97883.71;;;0.42;77.11
35307;BME280;21420;52.196;21.416;2024-01-15T02:50:23;97883.61;;;0.41;77.19
35307;BME280;21420;52.196;21.416;2024-01-15T02:52:50;97883.58;;;0.42;77.16
35307;BME280;21420;52.196;21.416;2024-01-15T02:55:17;97876.81;;;0.45;77.15
35307;BME280;21420;52.196;21.416;2024-01-15T02:57:44;97873.98;;;0.45;77.22
35307;BME280;21420;52.196;21.416;2024-01-15T03:00:13;97871.13;;;0.47;77.28
35307;BME280;21420;52.196;21.416;2024-01-15T03:02:41;97867.63;;;0.48;77.31
35307;BME280;21420;52.196;21.416;2024-01-15T03:05:13;97858.30;;;0.50;77.31
35307;BME280;21420;52.196;21.416;2024-01-15T03:07:40;97851.05;;;0.49;77.27
35307;BME280;21420;52.196;21.416;2024-01-15T03:10:07;97848.27;;;0.49;77.32
35307;BME280;21420;52.196;21.416;2024-01-15T03:19:27;97838.83;;;0.48;77.28
35307;BME280;21420;52.196;21.416;2024-01-15T03:21:54;97831.35;;;0.47;77.29
35307;BME280;21420;52.196;21.416;2024-01-15T03:24:21;97830.91;;;0.48;77.22
35307;BME280;21420;52.196;21.416;2024-01-15T03:26:48;97821.08;;;0.48;77.15
35307;BME280;21420;52.196;21.416;2024-01-15T03:29:15;97815.04;;;0.47;77.19
35307;BME280;21420;52.196;21.416;2024-01-15T03:31:41;97811.56;;;0.47;77.21
35307;BME280;21420;52.196;21.416;2024-01-15T03:34:08;97807.08;;;0.46;77.19
35307;BME280;21420;52.196;21.416;2024-01-15T03:36:35;97803.47;;;0.45;77.13
35307;BME280;21420;52.196;21.416;2024-01-15T03:39:02;97805.50;;;0.45;77.17
35307;BME280;21420;52.196;21.416;2024-01-15T03:41:28;97802.91;;;0.44;77.16
35307;BME280;21420;52.196;21.416;2024-01-15T03:43:55;97800.73;;;0.43;77.20
35307;BME280;21420;52.196;21.416;2024-01-15T03:46:22;97792.60;;;0.41;77.13
35307;BME280;21420;52.196;21.416;2024-01-15T03:48:48;97801.46;;;0.44;77.17
35307;BME280;21420;52.196;21.416;2024-01-15T03:51:17;97796.88;;;0.42;77.18
35307;BME280;21420;52.196;21.416;2024-01-15T03:53:44;97793.17;;;0.42;77.18
35307;BME280;21420;52.196;21.416;2024-01-15T03:56:11;97790.09;;;0.39;77.18
35307;BME280;21420;52.196;21.416;2024-01-15T03:58:38;97789.30;;;0.35;76.98
35307;BME280;21420;52.196;21.416;2024-01-15T04:01:09;97780.98;;;0.30;77.05
35307;BME280;21420;52.196;21.416;2024-01-15T04:03:36;97783.33;;;0.27;76.97
35307;BME280;21420;52.196;21.416;2024-01-15T04:06:04;97776.30;;;0.24;76.90
35307;BME280;21420;52.196;21.416;2024-01-15T04:08:31;97772.54;;;0.21;77.02
35307;BME280;21420;52.196;21.416;2024-01-15T04:10:57;97770.79;;;0.20;77.10
35307;BME280;21420;52.196;21.416;2024-01-15T04:13:24;97768.09;;;0.18;76.92
35307;BME280;21420;52.196;21.416;2024-01-15T04:15:51;97761.88;;;0.16;76.91
35307;BME280;21420;52.196;21.416;2024-01-15T04:18:18;97758.95;;;0.16;77.04
35307;BME280;21420;52.196;21.416;2024-01-15T04:20:45;97753.29;;;0.16;77.20
35307;BME280;21420;52.196;21.416;2024-01-15T04:23:11;97746.59;;;0.17;77.20
35307;BME280;21420;52.196;21.416;2024-01-15T04:25:38;97752.28;;;0.16;77.12
35307;BME280;21420;52.196;21.416;2024-01-15T04:28:08;97740.55;;;0.15;77.09
35307;BME280;21420;52.196;21.416;2024-01-15T04:30:35;97736.21;;;0.14;77.11
35307;BME280;21420;52.196;21.416;2024-01-15T04:33:02;97731.21;;;0.14;77.14
35307;BME280;21420;52.196;21.416;2024-01-15T04:35:33;97724.15;;;0.12;77.11
35307;BME280;21420;52.196;21.416;2024-01-15T04:38:00;97720.58;;;0.11;77.08
35307;BME280;21420;52.196;21.416;2024-01-15T04:40:27;97712.84;;;0.10;77.15
35307;BME280;21420;52.196;21.416;2024-01-15T04:42:54;97704.80;;;0.11;77.13
35307;BME280;21420;52.196;21.416;2024-01-15T04:45:21;97709.38;;;0.09;77.11
35307;BME280;21420;52.196;21.416;2024-01-15T04:47:49;97702.56;;;0.09;77.08
35307;BME280;21420;52.196;21.416;2024-01-15T04:50:16;97703.80;;;0.09;77.21
35307;BME280;21420;52.196;21.416;2024-01-15T04:52:43;97703.07;;;0.09;77.24
35307;BME280;21420;52.196;21.416;2024-01-15T04:55:10;97701.63;;;0.10;77.35
35307;BME280;21420;52.196;21.416;2024-01-15T04:57:36;97698.72;;;0.11;77.44
35307;BME280;21420;52.196;21.416;2024-01-15T05:00:04;97695.20;;;0.11;77.30
35307;BME280;21420;52.196;21.416;2024-01-15T05:02:31;97702.94;;;0.13;77.23
35307;BME280;21420;52.196;21.416;2024-01-15T05:04:58;97704.02;;;0.13;77.26
35307;BME280;21420;52.196;21.416;2024-01-15T05:07:25;97694.94;;;0.12;77.23
35307;BME280;21420;52.196;21.416;2024-01-15T05:09:52;97691.35;;;0.13;77.28
35307;BME280;21420;52.196;21.416;2024-01-15T05:12:19;97689.31;;;0.14;77.26
35307;BME280;21420;52.196;21.416;2024-01-15T05:14:45;97687.24;;;0.15;77.32
35307;BME280;21420;52.196;21.416;2024-01-15T05:17:12;97684.80;;;0.15;77.30
35307;BME280;21420;52.196;21.416;2024-01-15T05:19:39;97681.93;;;0.14;77.32
35307;BME280;21420;52.196;21.416;2024-01-15T05:22:06;97677.76;;;0.14;77.26
35307;BME280;21420;52.196;21.416;2024-01-15T05:24:32;97683.33;;;0.15;77.18
35307;BME280;21420;52.196;21.416;2024-01-15T05:26:59;97682.40;;;0.15;77.26
35307;BME280;21420;52.196;21.416;2024-01-15T05:29:26;97684.17;;;0.15;77.26
35307;BME280;21420;52.196;21.416;2024-01-15T05:31:53;97685.48;;;0.15;77.24
35307;BME280;21420;52.196;21.416;2024-01-15T05:34:20;97693.61;;;0.16;77.21
35307;BME280;21420;52.196;21.416;2024-01-15T05:36:46;97686.42;;;0.18;77.31
35307;BME280;21420;52.196;21.416;2024-01-15T05:39:14;97686.48;;;0.19;77.29
35307;BME280;21420;52.196;21.416;2024-01-15T05:41:41;97680.20;;;0.20;77.35
35307;BME280;21420;52.196;21.416;2024-01-15T05:44:08;97679.59;;;0.22;77.33
35307;BME280;21420;52.196;21.416;2024-01-15T05:46:34;97677.11;;;0.25;77.38
35307;BME280;21420;52.196;21.416;2024-01-15T05:49:01;97680.92;;;0.26;77.42
35307;BME280;21420;52.196;21.416;2024-01-15T05:51:28;97681.77;;;0.26;77.37
35307;BME280;21420;52.196;21.416;2024-01-15T05:53:55;97684.75;;;0.27;77.38
35307;BME280;21420;52.196;21.416;2024-01-15T05:56:21;97688.46;;;0.27;77.24
35307;BME280;21420;52.196;21.416;2024-01-15T05:58:50;97685.61;;;0.27;77.28
35307;BME280;21420;52.196;21.416;2024-01-15T06:01:17;97679.66;;;0.27;77.29
35307;BME280;21420;52.196;21.416;2024-01-15T06:03:44;97681.11;;;0.27;77.30
35307;BME280;21420;52.196;21.416;2024-01-15T06:06:11;97683.15;;;0.28;77.17
35307;BME280;21420;52.196;21.416;2024-01-15T06:08:39;97676.09;;;0.28;77.24
35307;BME280;21420;52.196;21.416;2024-01-15T06:11:06;97676.55;;;0.30;77.34
35307;BME280;21420;52.196;21.416;2024-01-15T06:13:33;97676.94;;;0.31;77.38
35307;BME280;21420;52.196;21.416;2024-01-15T06:16:00;97675.58;;;0.31;77.35
35307;BME280;21420;52.196;21.416;2024-01-15T06:18:27;97665.45;;;0.32;77.32
35307;BME280;21420;52.196;21.416;2024-01-15T06:20:54;97659.93;;;0.32;77.41
35307;BME280;21420;52.196;21.416;2024-01-15T06:23:20;97658.97;;;0.33;77.38
35307;BME280;21420;52.196;21.416;2024-01-15T06:25:47;97662.54;;;0.34;77.28
35307;BME280;21420;52.196;21.416;2024-01-15T06:28:14;97660.86;;;0.35;77.27
35307;BME280;21420;52.196;21.416;2024-01-15T06:30:41;97654.08;;;0.34;77.35
35307;BME280;21420;52.196;21.416;2024-01-15T06:33:08;97648.92;;;0.34;77.31
35307;BME280;21420;52.196;21.416;2024-01-15T06:35:35;97652.41;;;0.36;77.31
35307;BME280;21420;52.196;21.416;2024-01-15T06:38:02;97655.09;;;0.37;77.29
35307;BME280;21420;52.196;21.416;2024-01-15T06:40:29;97650.23;;;0.37;77.44
35307;BME280;21420;52.196;21.416;2024-01-15T06:42:56;97648.46;;;0.37;77.37
35307;BME280;21420;52.196;21.416;2024-01-15T06:45:23;97644.27;;;0.38;77.27
35307;BME280;21420;52.196;21.416;2024-01-15T06:47:49;97643.52;;;0.38;77.32
35307;BME280;21420;52.196;21.416;2024-01-15T06:50:16;97643.98;;;0.39;77.46
35307;BME280;21420;52.196;21.416;2024-01-15T06:52:43;97642.50;;;0.41;77.34
35307;BME280;21420;52.196;21.416;2024-01-15T06:55:09;97642.01;;;0.42;77.28
35307;BME280;21420;52.196;21.416;2024-01-15T06:57:36;97644.03;;;0.43;77.31
35307;BME280;21420;52.196;21.416;2024-01-15T07:00:03;97648.77;;;0.44;77.34
35307;BME280;21420;52.196;21.416;2024-01-15T07:02:34;97645.76;;;0.41;77.21
35307;BME280;21420;52.196;21.416;2024-01-15T07:05:01;97640.55;;;0.40;77.14
35307;BME280;21420;52.196;21.416;2024-01-15T07:07:28;97646.16;;;0.39;77.29
35307;BME280;21420;52.196;21.416;2024-01-15T07:09:56;97639.88;;;0.40;77.36
35307;BME280;21420;52.196;21.416;2024-01-15T07:15:04;97638.95;;;0.47;77.27
35307;BME280;21420;52.196;21.416;2024-01-15T07:17:34;97637.27;;;0.45;77.39
35307;BME280;21420;52.196;21.416;2024-01-15T07:20:01;97639.30;;;0.47;77.31
35307;BME280;21420;52.196;21.416;2024-01-15T07:22:28;97634.52;;;0.48;77.32
35307;BME280;21420;52.196;21.416;2024-01-15T07:24:56;97636.27;;;0.50;77.30
35307;BME280;21420;52.196;21.416;2024-01-15T07:27:23;97641.85;;;0.51;77.35
35307;BME280;21420;52.196;21.416;2024-01-15T07:29:49;97636.38;;;0.51;77.25
35307;BME280;21420;52.196;21.416;2024-01-15T07:32:16;97637.16;;;0.49;77.28
35307;BME280;21420;52.196;21.416;2024-01-15T07:34:43;97638.38;;;0.47;77.25
35307;BME280;21420;52.196;21.416;2024-01-15T07:37:10;97632.80;;;0.45;77.13
35307;BME280;21420;52.196;21.416;2024-01-15T07:39:38;97636.24;;;0.42;77.14
35307;BME280;21420;52.196;21.416;2024-01-15T07:42:05;97637.09;;;0.37;77.16
35307;BME280;21420;52.196;21.416;2024-01-15T07:44:32;97635.56;;;0.33;77.06
35307;BME280;21420;52.196;21.416;2024-01-15T07:46:58;97633.50;;;0.29;77.13
35307;BME280;21420;52.196;21.416;2024-01-15T07:49:25;97631.47;;;0.26;77.02
35307;BME280;21420;52.196;21.416;2024-01-15T07:51:52;97626.11;;;0.21;77.00
35307;BME280;21420;52.196;21.416;2024-01-15T07:54:19;97628.63;;;0.21;77.04
35307;BME280;21420;52.196;21.416;2024-01-15T07:57:00;97630.23;;;0.23;76.99
35307;BME280;21420;52.196;21.416;2024-01-15T07:59:27;97630.20;;;0.22;77.11
35307;BME280;21420;52.196;21.416;2024-01-15T08:01:54;97627.04;;;0.19;77.10
35307;BME280;21420;52.196;21.416;2024-01-15T08:04:21;97635.27;;;0.17;77.12
35307;BME280;21420;52.196;21.416;2024-01-15T08:06:48;97639.17;;;0.16;77.09
35307;BME280;21420;52.196;21.416;2024-01-15T08:09:16;97636.54;;;0.13;77.09
35307;BME280;21420;52.196;21.416;2024-01-15T08:11:43;97642.18;;;0.10;77.11
35307;BME280;21420;52.196;21.416;2024-01-15T08:14:10;97629.73;;;0.08;77.12
35307;BME280;21420;52.196;21.416;2024-01-15T08:16:37;97624.88;;;0.07;77.13
35307;BME280;21420;52.196;21.416;2024-01-15T08:19:04;97619.90;;;0.06;77.12
35307;BME280;21420;52.196;21.416;2024-01-15T08:21:32;97622.71;;;-0.02;77.00
35307;BME280;21420;52.196;21.416;2024-01-15T08:24:00;97628.45;;;-0.10;76.89
35307;BME280;21420;52.196;21.416;2024-01-15T08:26:29;97628.30;;;-0.14;76.92
35307;BME280;21420;52.196;21.416;2024-01-15T08:28:56;97624.44;;;-0.15;76.94
35307;BME280;21420;52.196;21.416;2024-01-15T08:31:24;97630.66;;;-0.15;76.86
35307;BME280;21420;52.196;21.416;2024-01-15T08:33:51;97634.88;;;-0.13;76.91
35307;BME280;21420;52.196;21.416;2024-01-15T08:36:18;97637.55;;;-0.11;76.86
35307;BME280;21420;52.196;21.416;2024-01-15T08:38:45;97635.63;;;-0.11;76.78
35307;BME280;21420;52.196;21.416;2024-01-15T08:41:13;97641.86;;;-0.11;76.83
35307;BME280;21420;52.196;21.416;2024-01-15T08:43:40;97650.59;;;-0.14;76.81
35307;BME280;21420;52.196;21.416;2024-01-15T08:46:06;97643.76;;;-0.14;76.80
35307;BME280;21420;52.196;21.416;2024-01-15T08:48:34;97644.20;;;-0.12;76.82
35307;BME280;21420;52.196;21.416;2024-01-15T08:51:01;97645.45;;;-0.09;76.84
35307;BME280;21420;52.196;21.416;2024-01-15T08:53:28;97644.83;;;-0.01;76.85
35307;BME280;21420;52.196;21.416;2024-01-15T08:55:55;97651.05;;;0.10;76.86
35307;BME280;21420;52.196;21.416;2024-01-15T08:58:23;97644.52;;;0.17;76.91
35307;BME280;21420;52.196;21.416;2024-01-15T09:00:50;97641.24;;;0.23;76.91
35307;BME280;21420;52.196;21.416;2024-01-15T09:03:17;97640.91;;;0.25;76.96
35307;BME280;21420;52.196;21.416;2024-01-15T09:05:44;97640.66;;;0.25;76.85
35307;BME280;21420;52.196;21.416;2024-01-15T09:08:11;97641.83;;;0.25;76.89
35307;BME280;21420;52.196;21.416;2024-01-15T09:10:38;97642.95;;;0.24;76.91
35307;BME280;21420;52.196;21.416;2024-01-15T09:13:05;97644.56;;;0.21;76.89
35307;BME280;21420;52.196;21.416;2024-01-15T09:15:31;97645.34;;;0.19;76.84
35307;BME280;21420;52.196;21.416;2024-01-15T09:17:59;97652.81;;;0.13;76.69
35307;BME280;21420;52.196;21.416;2024-01-15T09:20:26;97653.93;;;0.09;76.73
35307;BME280;21420;52.196;21.416;2024-01-15T09:22:54;97661.69;;;0.07;76.82
35307;BME280;21420;52.196;21.416;2024-01-15T09:25:20;97667.01;;;0.07;76.94
35307;BME280;21420;52.196;21.416;2024-01-15T09:27:47;97674.48;;;0.08;77.05
35307;BME280;21420;52.196;21.416;2024-01-15T09:30:15;97663.80;;;0.09;76.91
35307;BME280;21420;52.196;21.416;2024-01-15T09:32:42;97666.89;;;0.09;77.02
35307;BME280;21420;52.196;21.416;2024-01-15T09:35:09;97667.63;;;0.10;77.10
35307;BME280;21420;52.196;21.416;2024-01-15T09:37:37;97661.49;;;0.13;77.13
35307;BME280;21420;52.196;21.416;2024-01-15T09:40:14;97654.94;;;0.19;77.16
35307;BME280;21420;52.196;21.416;2024-01-15T09:42:44;97643.50;;;0.24;77.11
35307;BME280;21420;52.196;21.416;2024-01-15T09:45:13;97642.36;;;0.29;77.12
35307;BME280;21420;52.196;21.416;2024-01-15T09:47:40;97641.52;;;0.36;77.13
35307;BME280;21420;52.196;21.416;2024-01-15T09:50:13;97638.33;;;0.49;77.20
35307;BME280;21420;52.196;21.416;2024-01-15T09:52:40;97647.69;;;0.56;77.08
35307;BME280;21420;52.196;21.416;2024-01-15T09:55:09;97641.71;;;0.57;77.01
35307;BME280;21420;52.196;21.416;2024-01-15T09:57:36;97637.83;;;0.68;77.04
35307;BME280;21420;52.196;21.416;2024-01-15T10:00:04;97637.80;;;0.82;77.07
35307;BME280;21420;52.196;21.416;2024-01-15T10:02:33;97629.88;;;0.87;77.18
35307;BME280;21420;52.196;21.416;2024-01-15T10:05:02;97616.11;;;0.90;76.91
35307;BME280;21420;52.196;21.416;2024-01-15T10:07:30;97623.66;;;1.08;76.92
35307;BME280;21420;52.196;21.416;2024-01-15T10:10:01;97614.41;;;1.32;77.01
35307;BME280;21420;52.196;21.416;2024-01-15T10:12:31;97611.88;;;1.46;76.89
35307;BME280;21420;52.196;21.416;2024-01-15T10:14:58;97612.09;;;1.48;76.76
35307;BME280;21420;52.196;21.416;2024-01-15T10:17:26;97619.41;;;1.40;76.64
35307;BME280;21420;52.196;21.416;2024-01-15T10:19:55;97628.15;;;1.27;76.46
35307;BME280;21420;52.196;21.416;2024-01-15T10:22:24;97618.45;;;1.14;76.35
35307;BME280;21420;52.196;21.416;2024-01-15T10:24:51;97622.82;;;1.02;76.20
35307;BME280;21420;52.196;21.416;2024-01-15T10:27:18;97624.14;;;0.91;76.14
35307;BME280;21420;52.196;21.416;2024-01-15T10:29:45;97621.13;;;0.83;76.06
35307;BME280;21420;52.196;21.416;2024-01-15T10:32:12;97620.45;;;0.76;76.09
35307;BME280;21420;52.196;21.416;2024-01-15T10:34:40;97615.85;;;0.72;76.16
35307;BME280;21420;52.196;21.416;2024-01-15T10:37:09;97620.35;;;0.68;76.21
35307;BME280;21420;52.196;21.416;2024-01-15T10:39:36;97615.98;;;0.68;76.44
35307;BME280;21420;52.196;21.416;2024-01-15T10:42:05;97614.77;;;0.71;76.64
35307;BME280;21420;52.196;21.416;2024-01-15T10:44:33;97616.05;;;0.72;76.56
35307;BME280;21420;52.196;21.416;2024-01-15T10:47:02;97619.71;;;0.74;76.60
35307;BME280;21420;52.196;21.416;2024-01-15T10:49:32;97618.33;;;0.76;76.73
35307;BME280;21420;52.196;21.416;2024-01-15T10:52:02;97619.25;;;0.79;76.67
35307;BME280;21420;52.196;21.416;2024-01-15T10:54:33;97620.66;;;0.80;76.76
35307;BME280;21420;52.196;21.416;2024-01-15T10:57:05;97621.45;;;0.78;76.63
35307;BME280;21420;52.196;21.416;2024-01-15T10:59:32;97622.07;;;0.78;76.80
35307;BME280;21420;52.196;21.416;2024-01-15T11:01:59;97629.92;;;0.86;76.74
35307;BME280;21420;52.196;21.416;2024-01-15T11:04:26;97616.96;;;0.97;76.78
35307;BME280;21420;52.196;21.416;2024-01-15T11:06:55;97615.23;;;1.10;76.94
35307;BME280;21420;52.196;21.416;2024-01-15T11:09:23;97606.70;;;1.27;76.92
35307;BME280;21420;52.196;21.416;2024-01-15T11:12:05;97605.45;;;1.61;77.16
35307;BME280;21420;52.196;21.416;2024-01-15T11:14:39;97602.59;;;1.84;77.22
35307;BME280;21420;52.196;21.416;2024-01-15T11:17:06;97608.87;;;1.89;76.97
35307;BME280;21420;52.196;21.416;2024-01-15T11:19:46;97609.04;;;1.92;76.92
35307;BME280;21420;52.196;21.416;2024-01-15T11:25:18;97609.84;;;1.81;76.54
35307;BME280;21420;52.196;21.416;2024-01-15T11:27:45;97625.73;;;1.74;76.49
35307;BME280;21420;52.196;21.416;2024-01-15T11:30:20;97610.67;;;1.70;76.55
35307;BME280;21420;52.196;21.416;2024-01-15T11:32:51;97604.23;;;1.68;76.83
35307;BME280;21420;52.196;21.416;2024-01-15T11:35:18;97605.78;;;1.62;76.57
35307;BME280;21420;52.196;21.416;2024-01-15T11:40:23;97609.73;;;1.55;76.57
35307;BME280;21420;52.196;21.416;2024-01-15T11:43:06;97602.50;;;1.55;76.47
35307;BME280;21420;52.196;21.416;2024-01-15T11:45:36;97606.14;;;1.53;76.45
35307;BME280;21420;52.196;21.416;2024-01-15T11:50:44;97601.16;;;1.60;76.45
35307;BME280;21420;52.196;21.416;2024-01-15T11:53:37;97596.84;;;1.64;76.74
35307;BME280;21420;52.196;21.416;2024-01-15T11:56:14;97598.92;;;1.71;76.74
35307;BME280;21420;52.196;21.416;2024-01-15T11:58:41;97584.67;;;1.72;76.54
35307;BME280;21420;52.196;21.416;2024-01-15T12:01:10;97594.95;;;1.69;76.61
35307;BME280;21420;52.196;21.416;2024-01-15T12:03:37;97590.20;;;1.64;76.40
35307;BME280;21420;52.196;21.416;2024-01-15T12:06:07;97592.00;;;1.63;76.29
35307;BME280;21420;52.196;21.416;2024-01-15T12:08:35;97583.87;;;1.61;76.30
35307;BME280;21420;52.196;21.416;2024-01-15T12:11:06;97588.23;;;1.57;76.21
35307;BME280;21420;52.196;21.416;2024-01-15T12:13:37;97579.34;;;1.54;76.19
35307;BME280;21420;52.196;21.416;2024-01-15T12:16:04;97599.97;;;1.50;76.18
35307;BME280;21420;52.196;21.416;2024-01-15T12:18:31;97596.03;;;1.44;76.03
35307;BME280;21420;52.196;21.416;2024-01-15T12:21:00;97588.09;;;1.40;76.04
35307;BME280;21420;52.196;21.416;2024-01-15T12:23:27;97590.70;;;1.40;75.99
35307;BME280;21420;52.196;21.416;2024-01-15T12:25:54;97589.63;;;1.38;75.97
35307;BME280;21420;52.196;21.416;2024-01-15T12:28:21;97586.48;;;1.35;76.07
35307;BME280;21420;52.196;21.416;2024-01-15T12:30:49;97586.39;;;1.33;75.94
35307;BME280;21420;52.196;21.416;2024-01-15T12:33:18;97589.07;;;1.32;76.02
35307;BME280;21420;52.196;21.416;2024-01-15T12:35:46;97587.34;;;1.28;76.04
35307;BME280;21420;52.196;21.416;2024-01-15T12:38:13;97593.34;;;1.28;76.04
35307;BME280;21420;52.196;21.416;2024-01-15T12:40:43;97591.23;;;1.27;75.90
35307;BME280;21420;52.196;21.416;2024-01-15T12:43:13;97592.21;;;1.23;76.03
35307;BME280;21420;52.196;21.416;2024-01-15T12:45:40;97595.06;;;1.17;76.10
35307;BME280;21420;52.196;21.416;2024-01-15T12:48:07;97588.71;;;1.14;75.99
35307;BME280;21420;52.196;21.416;2024-01-15T12:50:34;97588.65;;;1.12;75.84
35307;BME280;21420;52.196;21.416;2024-01-15T12:53:02;97588.85;;;1.11;76.14
35307;BME280;21420;52.196;21.416;2024-01-15T12:55:29;97589.58;;;1.09;75.97
35307;BME280;21420;52.196;21.416;2024-01-15T12:57:55;97598.95;;;1.06;76.03
35307;BME280;21420;52.196;21.416;2024-01-15T13:00:22;97599.52;;;1.01;75.93
35307;BME280;21420;52.196;21.416;2024-01-15T13:02:50;97588.24;;;0.95;75.76
35307;BME280;21420;52.196;21.416;2024-01-15T13:05:17;97594.18;;;0.85;75.78
35307;BME280;21420;52.196;21.416;2024-01-15T13:07:47;97592.39;;;0.77;75.71
35307;BME280;21420;52.196;21.416;2024-01-15T13:10:13;97586.40;;;0.74;75.94
35307;BME280;21420;52.196;21.416;2024-01-15T13:12:41;97579.30;;;0.74;75.98
35307;BME280;21420;52.196;21.416;2024-01-15T13:15:08;97586.70;;;0.77;75.87
35307;BME280;21420;52.196;21.416;2024-01-15T13:17:41;97595.95;;;0.75;75.95
35307;BME280;21420;52.196;21.416;2024-01-15T13:20:09;97593.20;;;0.73;75.94